Time;durP1;ratioP1;P1;durP2;ratioP2;P2;SDS_P1;SDS_P2;PMS_P1;PMS_P2;Temp;Humidity;BMP_temperature;BMP_pressure;BME280_temperature;BME280_humidity;BME280_pressure;Samples;Min_cycle;Max_cycle;Signal;HPM_P1;HPM_P2
2022/12/10 00:03:41;;;;;;;0.20;0.20;;;4.70;99.90;;;;;;20259793;23;20053;-61
2022/12/10 00:13:44;;;;;;;0.50;0.30;;;4.80;99.90;;;;;;20183540;23;1282681;-60
2022/12/10 00:23:46;;;;;;;1.20;0.30;;;4.60;99.90;;;;;;20253633;23;20058;-62
2022/12/10 00:33:49;;;;;;;0.73;0.30;;;4.60;99.90;;;;;;20283088;23;20508;-61
2022/12/10 00:43:50;;;;;;;1.33;0.40;;;4.80;99.90;;;;;;20233967;23;20054;-61
2022/12/10 00:53:54;;;;;;;4.93;0.50;;;4.70;99.90;;;;;;20234668;23;20146;-60
2022/12/10 01:03:59;;;;;;;1.25;0.60;;;4.60;99.90;;;;;;20263119;23;20121;-62
2022/12/10 01:14:01;;;;;;;0.20;0.20;;;4.40;99.90;;;;;;20210952;23;20061;-59
2022/12/10 01:24:03;;;;;;;0.43;0.20;;;4.40;99.90;;;;;;20271264;23;20343;-55
2022/12/10 01:34:07;;;;;;;0.63;0.20;;;4.60;99.90;;;;;;20212317;23;20423;-62
2022/12/10 01:44:09;;;;;;;0.88;0.50;;;4.80;99.90;;;;;;20254957;23;20050;-55
2022/12/10 01:54:14;;;;;;;1.45;0.60;;;4.50;99.90;;;;;;20237989;23;20078;-62
2022/12/10 02:14:41;;;;;;;0.85;0.50;;;4.50;99.90;;;;;;20168216;23;20057;-59
2022/12/10 02:24:45;;;;;;;0.47;0.10;;;4.50;99.90;;;;;;20246291;23;20062;-64
2022/12/10 02:34:52;;;;;;;2.90;0.57;;;4.60;99.90;;;;;;20235140;23;20065;-58
2022/12/10 02:44:57;;;;;;;1.60;0.50;;;4.60;99.90;;;;;;20244387;23;20445;-63
2022/12/10 02:54:59;;;;;;;0.90;0.47;;;4.40;99.90;;;;;;20220117;23;20109;-59
2022/12/10 03:05:41;;;;;;;1.63;0.50;;;4.30;99.90;;;;;;20187255;23;20081;31
2022/12/10 03:15:45;;;;;;;0.90;0.50;;;4.20;99.90;;;;;;20196745;23;20097;-61
2022/12/10 03:25:49;;;;;;;1.13;0.40;;;4.00;99.90;;;;;;20178950;23;20050;-59
2022/12/10 03:36:07;;;;;;;1.52;0.80;;;4.20;99.90;;;;;;20246878;23;20062;-60
2022/12/10 03:46:09;;;;;;;3.28;1.23;;;4.30;99.90;;;;;;20286870;23;20120;-58
2022/12/10 03:56:11;;;;;;;2.35;1.00;;;4.20;99.90;;;;;;20242774;23;20090;-59
2022/12/10 04:06:16;;;;;;;1.60;1.10;;;4.10;99.90;;;;;;20284530;23;20050;-57
2022/12/10 04:16:27;;;;;;;1.52;0.80;;;4.20;99.90;;;;;;20278775;23;20431;-59
2022/12/10 04:26:53;;;;;;;3.22;1.05;;;4.10;99.90;;;;;;20237404;23;20061;-48
2022/12/10 04:47:13;;;;;;;2.10;1.10;;;3.90;99.90;;;;;;20226763;23;20084;-64
2022/12/10 04:57:15;;;;;;;2.17;1.40;;;3.90;99.90;;;;;;20331730;23;20421;-58
2022/12/10 05:07:16;;;;;;;5.55;3.08;;;4.00;99.90;;;;;;20292939;23;20138;-63
2022/12/10 05:17:18;;;;;;;89.15;3.55;;;3.90;99.90;;;;;;20285188;23;20059;-50
2022/12/10 05:27:23;;;;;;;340.60;10.80;;;3.80;99.90;;;;;;20302401;23;20464;-61
2022/12/10 05:37:24;;;;;;;30.38;4.82;;;3.80;99.90;;;;;;20248676;23;20057;-63
2022/12/10 05:47:26;;;;;;;3.95;2.80;;;3.70;99.90;;;;;;20299795;23;20105;-59
2022/12/10 05:57:28;;;;;;;5.60;3.38;;;3.70;99.90;;;;;;20294336;23;20464;-61
2022/12/10 06:07:30;;;;;;;3.65;1.85;;;3.60;99.90;;;;;;20281566;23;20086;-60
2022/12/10 06:17:32;;;;;;;4.50;2.10;;;3.50;99.90;;;;;;20272886;23;20125;-50
2022/12/10 06:27:34;;;;;;;1.05;0.93;;;3.50;99.90;;;;;;20254219;23;20049;-61
2022/12/10 06:37:36;;;;;;;1.40;0.60;;;3.50;99.90;;;;;;20290974;23;20484;-59
2022/12/10 06:47:38;;;;;;;9.13;2.88;;;3.90;99.90;;;;;;20289369;23;20579;-54
2022/12/10 06:57:39;;;;;;;5.72;4.13;;;3.80;99.90;;;;;;20291901;23;20078;-58
2022/12/10 07:07:42;;;;;;;264.92;11.48;;;3.90;99.90;;;;;;20275626;23;20061;-62
2022/12/10 07:17:44;;;;;;;63.17;5.60;;;3.70;99.90;;;;;;20251792;23;20057;-61
2022/12/10 07:27:45;;;;;;;4.70;2.72;;;3.70;99.90;;;;;;20265926;23;20070;-58
2022/12/10 07:37:47;;;;;;;3.88;2.75;;;3.60;99.90;;;;;;20282595;23;20053;-67
2022/12/10 07:47:49;;;;;;;8.00;4.70;;;3.60;99.90;;;;;;20288160;23;20097;-61
2022/12/10 07:57:51;;;;;;;193.93;7.53;;;3.50;99.90;;;;;;20262481;23;20663;-46
2022/12/10 08:07:52;;;;;;;212.50;8.75;;;3.50;99.90;;;;;;20276598;23;20129;-57
2022/12/10 08:17:55;;;;;;;6.93;4.40;;;3.60;99.90;;;;;;20266880;23;20508;-61
2022/12/10 08:27:57;;;;;;;6.70;4.30;;;3.70;99.90;;;;;;20295694;23;20571;-57
2022/12/10 08:37:59;;;;;;;1.40;0.85;;;3.70;99.90;;;;;;20296303;23;20049;-61
2022/12/10 08:48:07;;;;;;;1.40;0.80;;;3.70;99.90;;;;;;20319865;23;20093;31
2022/12/10 08:58:09;;;;;;;2.40;1.77;;;3.80;99.90;;;;;;20157871;23;20136;-57
2022/12/10 09:08:11;;;;;;;3.00;2.10;;;3.80;99.90;;;;;;20200025;23;1215582;-60
2022/12/10 09:18:13;;;;;;;5.03;2.70;;;3.70;99.90;;;;;;20250747;23;20432;-60
2022/12/10 09:28:15;;;;;;;13.30;4.22;;;3.80;99.90;;;;;;20242195;23;20429;-60
2022/12/10 09:38:16;;;;;;;5.72;3.60;;;3.90;99.90;;;;;;20243296;23;20069;-59
2022/12/10 09:58:41;;;;;;;13.43;4.93;;;3.90;99.90;;;;;;20192084;23;20062;-60
2022/12/10 10:08:55;;;;;;;36.58;6.80;;;3.90;99.90;;;;;;20246482;23;20066;-57
2022/12/10 10:19:04;;;;;;;10.85;4.88;;;3.90;99.90;;;;;;20254748;23;20058;-61
2022/12/10 10:29:09;;;;;;;5.03;3.03;;;4.00;99.90;;;;;;20282114;23;20062;-60
2022/12/10 10:39:28;;;;;;;5.10;3.30;;;4.20;99.90;;;;;;20285042;23;20049;-59
2022/12/10 10:49:32;;;;;;;69.53;5.13;;;4.60;99.90;;;;;;20250418;23;20099;-61
2022/12/10 10:59:49;;;;;;;18.45;4.20;;;5.30;99.90;;;;;;20217517;23;20116;-61
2022/12/10 11:09:56;;;;;;;4.43;2.88;;;5.60;99.90;;;;;;20168003;23;20058;-59
2022/12/10 11:20:03;;;;;;;2.80;2.00;;;5.60;99.90;;;;;;20223089;23;20057;-60
2022/12/10 11:30:32;;;;;;;5.53;2.80;;;5.60;99.90;;;;;;20251818;23;20053;-60
2022/12/10 11:40:50;;;;;;;5.10;2.43;;;5.60;99.90;;;;;;20236538;23;20401;-60
2022/12/10 11:51:05;;;;;;;3.60;2.47;;;5.60;99.90;;;;;;20229912;23;20565;-61
2022/12/10 12:01:11;;;;;;;2.53;1.20;;;5.60;99.90;;;;;;20231652;23;20193;-61
2022/12/10 12:11:37;;;;;;;3.08;2.20;;;5.60;99.90;;;;;;20220982;23;20090;-62
2022/12/10 12:21:41;;;;;;;3.15;2.15;;;5.30;99.90;;;;;;20179745;23;20113;-54
2022/12/10 12:32:02;;;;;;;2.00;1.73;;;5.20;99.90;;;;;;20199772;23;20057;31
2022/12/10 12:42:50;;;;;;;2.10;1.52;;;5.40;99.90;;;;;;20105762;23;20424;-61
2022/12/10 12:52:58;;;;;;;1.17;0.90;;;5.70;99.90;;;;;;20197708;23;20049;-61
2022/12/10 13:03:27;;;;;;;1.80;1.48;;;5.80;99.90;;;;;;20198545;23;20057;-61
2022/12/10 13:14:01;;;;;;;2.65;1.80;;;5.70;99.90;;;;;;20168845;23;20062;-62
2022/12/10 13:24:12;;;;;;;0.70;0.50;;;5.60;99.90;;;;;;20208470;23;20118;31
2022/12/10 13:34:33;;;;;;;1.45;1.15;;;5.70;99.90;;;;;;20144234;23;20061;-60
2022/12/10 13:45:00;;;;;;;1.08;0.90;;;5.60;99.90;;;;;;20158097;23;20413;-61
2022/12/10 13:55:08;;;;;;;0.93;0.77;;;5.60;99.90;;;;;;20162030;23;20066;-61
2022/12/10 14:05:37;;;;;;;2.53;2.05;;;5.90;99.90;;;;;;20188135;23;20049;-46
2022/12/10 14:15:40;;;;;;;2.22;1.15;;;5.70;99.90;;;;;;20248769;23;20089;-60
2022/12/10 14:25:43;;;;;;;0.95;0.60;;;5.70;99.90;;;;;;20249524;23;20062;-60
2022/12/10 14:35:49;;;;;;;1.42;0.90;;;5.60;99.90;;;;;;20239522;23;20058;-57
2022/12/10 14:45:57;;;;;;;1.33;0.70;;;5.10;99.90;;;;;;20227877;23;20162;-60
2022/12/10 14:56:08;;;;;;;0.85;0.50;;;4.50;99.90;;;;;;20234613;23;20054;31
2022/12/10 15:06:10;;;;;;;0.40;0.20;;;4.30;99.90;;;;;;20182119;23;20644;-61
2022/12/10 15:16:27;;;;;;;0.68;0.20;;;4.10;99.90;;;;;;20249125;23;20105;-55
2022/12/10 15:26:32;;;;;;;0.77;0.40;;;4.00;99.90;;;;;;20239111;23;20057;-60
2022/12/10 15:36:37;;;;;;;0.45;0.30;;;4.00;99.90;;;;;;20240403;23;20061;-63
2022/12/10 15:46:50;;;;;;;0.40;0.20;;;3.90;99.90;;;;;;20250461;23;20058;-60
2022/12/10 15:56:51;;;;;;;1.92;0.30;;;3.90;99.90;;;;;;20237948;23;20042;-61
2022/12/10 16:07:11;;;;;;;0.40;0.15;;;3.90;99.90;;;;;;20175303;23;20143;-69
2022/12/10 16:17:13;;;;;;;19.05;12.43;;;3.80;99.90;;;;;;20145063;23;20584;-61
2022/12/10 16:27:15;;;;;;;0.10;0.10;;;3.80;99.90;;;;;;20253901;23;20050;-61
2022/12/10 16:37:17;;;;;;;0.38;0.10;;;3.80;99.90;;;;;;20238818;23;20543;-61
2022/12/10 16:47:19;;;;;;;1.63;0.60;;;3.80;99.90;;;;;;20244759;23;20415;-68
2022/12/10 16:57:22;;;;;;;0.15;0.00;;;3.80;99.90;;;;;;20244539;23;20062;-60
2022/12/10 17:07:23;;;;;;;0.00;0.00;;;3.80;99.90;;;;;;20174998;23;20084;-60
2022/12/10 17:17:25;;;;;;;0.00;0.00;;;3.80;99.90;;;;;;20245674;23;20061;-60
2022/12/10 17:27:27;;;;;;;0.00;0.00;;;3.80;99.90;;;;;;20226569;23;20062;-61
2022/12/10 17:37:31;;;;;;;0.00;0.00;;;3.60;99.90;;;;;;20250401;23;20057;-61
2022/12/10 17:47:35;;;;;;;0.10;0.00;;;3.60;99.90;;;;;;20238025;23;20440;-61
2022/12/10 17:57:37;;;;;;;0.00;0.00;;;3.50;99.90;;;;;;20192783;23;20128;-56
2022/12/10 18:07:39;;;;;;;0.00;0.00;;;3.10;99.90;;;;;;20183417;23;1463206;-73
2022/12/10 18:17:41;;;;;;;0.00;0.00;;;2.80;99.90;;;;;;20234715;23;20106;-61
2022/12/10 18:27:42;;;;;;;0.00;0.00;;;2.70;99.90;;;;;;20250396;23;20053;-62
2022/12/10 18:37:45;;;;;;;0.10;0.00;;;2.30;99.90;;;;;;20243559;23;20600;-59
2022/12/10 18:47:47;;;;;;;0.25;0.10;;;1.90;99.90;;;;;;20221798;23;20061;-62
2022/12/10 18:57:49;;;;;;;0.00;0.00;;;1.50;99.90;;;;;;20248641;23;20065;-61
2022/12/10 19:08:10;;;;;;;0.10;0.00;;;1.30;99.90;;;;;;20279658;23;20058;-44
2022/12/10 19:18:15;;;;;;;0.82;0.00;;;1.10;99.90;;;;;;20272147;23;20106;-63
2022/12/10 19:28:17;;;;;;;0.00;0.00;;;1.00;99.90;;;;;;20245232;23;20502;-61
2022/12/10 19:38:22;;;;;;;0.32;0.00;;;0.90;99.90;;;;;;20231686;23;20065;-64
2022/12/10 19:48:24;;;;;;;0.20;0.10;;;1.20;99.90;;;;;;20182032;23;20061;-56
2022/12/10 19:58:26;;;;;;;0.15;0.10;;;1.60;99.90;;;;;;20210993;23;20062;-60
2022/12/10 20:08:28;;;;;;;0.10;0.00;;;2.00;99.90;;;;;;20243420;23;20058;-62
2022/12/10 20:18:30;;;;;;;0.30;0.10;;;2.30;99.90;;;;;;20229742;23;21134;-61
2022/12/10 20:28:34;;;;;;;0.30;0.20;;;2.40;99.90;;;;;;20248459;23;20058;-62
2022/12/10 20:38:35;;;;;;;0.38;0.20;;;2.30;99.90;;;;;;20223346;23;20189;-63
2022/12/10 20:48:37;;;;;;;0.20;0.10;;;1.80;99.90;;;;;;20249828;23;20105;-68
2022/12/10 20:58:40;;;;;;;0.40;0.20;;;1.50;99.90;;;;;;20250492;23;20058;-63
2022/12/10 21:08:43;;;;;;;0.47;0.15;;;1.80;99.90;;;;;;20248298;23;20050;-60
2022/12/10 21:18:47;;;;;;;0.60;0.30;;;1.70;99.90;;;;;;20250398;23;20058;-55
2022/12/10 21:28:49;;;;;;;0.50;0.30;;;1.80;99.90;;;;;;20218390;23;20469;-64
2022/12/10 21:38:51;;;;;;;0.80;0.40;;;1.50;99.90;;;;;;20252010;23;20229;-60
2022/12/10 21:48:53;;;;;;;0.40;0.22;;;1.50;99.90;;;;;;20239725;23;20062;-63
2022/12/10 21:58:56;;;;;;;1.13;0.32;;;1.60;99.90;;;;;;20251595;23;20053;-60
2022/12/10 22:08:58;;;;;;;0.60;0.30;;;1.70;99.90;;;;;;20258064;23;20122;-63
2022/12/10 22:18:59;;;;;;;1.35;0.85;;;1.50;99.90;;;;;;20213977;23;20192;-62
2022/12/10 22:29:01;;;;;;;0.80;0.40;;;1.50;99.90;;;;;;20233738;23;20102;-59
2022/12/10 22:39:04;;;;;;;0.95;0.50;;;1.50;99.90;;;;;;20251568;23;20436;-63
2022/12/10 22:49:05;;;;;;;0.95;0.60;;;1.50;99.90;;;;;;20240848;23;20339;-57
2022/12/10 22:59:09;;;;;;;1.15;0.55;;;1.30;99.90;;;;;;20256670;23;20054;-55
2022/12/10 23:09:11;;;;;;;0.95;0.65;;;1.20;99.90;;;;;;20219440;23;20278;-57
2022/12/10 23:19:13;;;;;;;1.08;0.70;;;1.10;99.90;;;;;;20230342;23;20110;-58
2022/12/10 23:29:14;;;;;;;0.73;0.50;;;1.00;99.90;;;;;;20240142;23;20050;-59
2022/12/10 23:39:16;;;;;;;1.20;0.68;;;1.00;99.90;;;;;;20230705;23;20057;-58
2022/12/10 23:49:18;;;;;;;1.13;0.70;;;1.10;99.90;;;;;;20250598;23;20544;-58
2022/12/10 23:59:24;;;;;;;1.05;0.50;;;1.20;99.90;;;;;;20221576;23;20058;-61
